Pacific Dawn — 3ECJ9 — position and weather

sailwx.info

Track history (hours):
 
Tides and Currents Weather Stations Pressure Air Temp Water Temp Dewpoint Dewpoint Depression Visibility Wind Speed Wind Dir Waves Ship Positions

Pacific Dawn

Last reported at 2014-Oct-02 08:31 UTC. Time now 2014-Oct-02 12:27 UTC.
Position N 29°38' E 122°30'.

Length 239 m; draft 11.5 m.

Type: Ship. MMSI: 371361000.

Date/timePositionNaut miles runAvg speedWind from/ knotsBaromVisibWave heightAir tempDewpointWater temp
2014-Oct-02 08:31N 29°38' E 122°30'0 0.0
2014-Oct-02 04:13N 29°38' E 122°30'0 0.0
2014-Oct-02 03:25N 29°38' E 122°30'0 0.1
2014-Oct-02 02:13N 29°38' E 122°30'0 0.0
2014-Oct-01 23:13N 29°38' E 122°30'0 0.0
2014-Oct-01 18:25N 29°38' E 122°30'0 0.0
2014-Oct-01 15:31N 29°38' E 122°30'0 0.0
2014-Oct-01 12:25N 29°38' E 122°30'0 0.0
2014-Oct-01 11:13N 29°38' E 122°30'0 0.1
2014-Oct-01 10:31N 29°38' E 122°30'0 0.0
2014-Oct-01 01:13N 29°38' E 122°30'0 0.0
2014-Sep-30 23:13N 29°38' E 122°30'0 0.1
2014-Sep-30 22:19N 29°38' E 122°30'0 0.0
2014-Sep-30 21:07N 29°38' E 122°30'0 0.0
2014-Sep-30 11:31N 29°38' E 122°30'0 0.0
2014-Sep-30 09:31N 29°38' E 122°30'0 0.0
2014-Sep-30 02:31N 29°38' E 122°30'0 0.1
2014-Sep-30 00:13N 29°38' E 122°30'0 0.1
2014-Sep-29 23:31N 29°38' E 122°30'0 0.1
2014-Sep-29 19:31N 29°38' E 122°31'0 0.1
2014-Sep-29 17:19N 29°38' E 122°31'0 0.0
2014-Sep-29 11:31N 29°38' E 122°30'0 0.0
2014-Sep-29 08:25N 29°38' E 122°31'0 0.0
2014-Sep-28 23:19N 29°38' E 122°30'0 0.1
2014-Sep-28 18:25N 29°38' E 122°31'0 0.1
2014-Sep-28 16:25N 29°38' E 122°30'0 0.1
2014-Sep-28 14:07N 29°38' E 122°30'0 0.1
2014-Sep-28 11:25N 29°38' E 122°30'0 0.0
2014-Sep-28 10:07N 29°38' E 122°30'0 0.0
2014-Sep-28 02:07N 29°38' E 122°30'0 0.2
2014-Sep-28 00:31N 29°38' E 122°30'0 0.1
2014-Sep-27 21:19N 29°38' E 122°31'0 0.0
2014-Sep-27 20:07N 29°38' E 122°31'0 0.1
2014-Sep-27 18:31N 29°38' E 122°31'0 0.1
2014-Sep-27 15:13N 29°38' E 122°30'0 0.1
2014-Sep-27 12:19N 29°38' E 122°30'0 0.1
2014-Sep-27 06:25N 29°38' E 122°31'1 0.3
2014-Sep-27 04:33N 29°38' E 122°30'6 5.6
2014-Sep-27 03:32N 29°42' E 122°36'9 8.8
2014-Sep-27 02:33N 29°47' E 122°43'10 9.8
2014-Sep-27 01:32N 29°50' E 122°54'1110.7
2014-Sep-27 00:32N 29°52' E 123°06'1110.8
2014-Sep-26 23:33N 29°54' E 123°18'2110.5
2014-Sep-26 21:31N 29°57' E 123°43'  
Track history (hours):
 
Tides and Currents Weather Stations Pressure Air Temp Water Temp Dewpoint Dewpoint Depression Visibility Wind Speed Wind Dir Waves Ship Positions

Pacific Dawn

Last reported at 2014-Oct-02 08:31 UTC. Time now 2014-Oct-02 12:27 UTC.
Position N 29°38' E 122°30'.

Length 239 m; draft 11.5 m.

Type: Ship. MMSI: 371361000.

Date/timePositionNaut miles runAvg speedWind from/ knotsBaromVisibWave heightAir tempDewpointWater temp
2014-Oct-02 08:31N 29°38' E 122°30'0 0.0
2014-Oct-02 04:13N 29°38' E 122°30'0 0.0
2014-Oct-02 03:25N 29°38' E 122°30'0 0.1
2014-Oct-02 02:13N 29°38' E 122°30'0 0.0
2014-Oct-01 23:13N 29°38' E 122°30'0 0.0
2014-Oct-01 18:25N 29°38' E 122°30'0 0.0
2014-Oct-01 15:31N 29°38' E 122°30'0 0.0
2014-Oct-01 12:25N 29°38' E 122°30'0 0.0
2014-Oct-01 11:13N 29°38' E 122°30'0 0.1
2014-Oct-01 10:31N 29°38' E 122°30'0 0.0
2014-Oct-01 01:13N 29°38' E 122°30'0 0.0
2014-Sep-30 23:13N 29°38' E 122°30'0 0.1
2014-Sep-30 22:19N 29°38' E 122°30'0 0.0
2014-Sep-30 21:07N 29°38' E 122°30'0 0.0
2014-Sep-30 11:31N 29°38' E 122°30'0 0.0
2014-Sep-30 09:31N 29°38' E 122°30'0 0.0
2014-Sep-30 02:31N 29°38' E 122°30'0 0.1
2014-Sep-30 00:13N 29°38' E 122°30'0 0.1
2014-Sep-29 23:31N 29°38' E 122°30'0 0.1
2014-Sep-29 19:31N 29°38' E 122°31'0 0.1
2014-Sep-29 17:19N 29°38' E 122°31'0 0.0
2014-Sep-29 11:31N 29°38' E 122°30'0 0.0
2014-Sep-29 08:25N 29°38' E 122°31'0 0.0
2014-Sep-28 23:19N 29°38' E 122°30'0 0.1
2014-Sep-28 18:25N 29°38' E 122°31'0 0.1
2014-Sep-28 16:25N 29°38' E 122°30'0 0.1
2014-Sep-28 14:07N 29°38' E 122°30'0 0.1
2014-Sep-28 11:25N 29°38' E 122°30'0 0.0
2014-Sep-28 10:07N 29°38' E 122°30'0 0.0
2014-Sep-28 02:07N 29°38' E 122°30'0 0.2
2014-Sep-28 00:31N 29°38' E 122°30'0 0.1
2014-Sep-27 21:19N 29°38' E 122°31'0 0.0
2014-Sep-27 20:07N 29°38' E 122°31'0 0.1
2014-Sep-27 18:31N 29°38' E 122°31'0 0.1
2014-Sep-27 15:13N 29°38' E 122°30'0 0.1
2014-Sep-27 12:19N 29°38' E 122°30'0 0.1
2014-Sep-27 06:25N 29°38' E 122°31'1 0.3
2014-Sep-27 04:33N 29°38' E 122°30'6 5.6
2014-Sep-27 03:32N 29°42' E 122°36'9 8.8
2014-Sep-27 02:33N 29°47' E 122°43'10 9.8
2014-Sep-27 01:32N 29°50' E 122°54'1110.7
2014-Sep-27 00:32N 29°52' E 123°06'1110.8
2014-Sep-26 23:33N 29°54' E 123°18'2110.5
2014-Sep-26 21:31N 29°57' E 123°43'  

Dump ship's entire track history